Terminal Aerodrome Forecast
Issued by NWS

Home | Current Version | Previous Version | Graphics & Text | Print | Product List | Glossary On
Versions: 1 2 3 4 5 6 7 8 9 10 11 12 13 14
057
FTUS43 KICT 201137
TAFRSL
TAF
KRSL 201137Z 2012/2112 21014KT P6SM BKN100
     FM201700 33018G26KT P6SM SCT250
     FM210000 34008KT P6SM SKC=

USA.gov is the U.S. government's official web portal to all federal, state and local government web resources and services.